Riva, Maryland
Current Conditions -  °F | °C
As of 12:54 PM on Wednesday 26 Nov 2014 (Local Time) from KNAK Reporting Station
Light Rain Light Rain  
Wind Chill: 28°   Ceiling: 900
Heat Index: 36°   Visibility: 3mi
Dew Point: 34°   Wind: 12mph
Humidity: 93%   Direction: 360°N
Pressure: 29.9"   Gusts: NA
Location:  38.95°N, 76.59°W
Report Text: KNAK 261754Z AUTO 36010KT 3SM -RA BR BKN009 BKN045 OVC055 02/01 A2990 RMK AO2 RAB33SNE33 PRESFR SLP127 P0013 60082 T00220011 10067 20017 58054
Loading
Personal Weather Stations






























Interactive Weather Map New forecast layout! Learn more

10-Day Weather Forecast

Advertisements
Track Severe Weather on mobile